Time;durP1;ratioP1;P1;durP2;ratioP2;P2;SDS_P1;SDS_P2;PMS_P1;PMS_P2;Temp;Humidity;BMP_temperature;BMP_pressure;BME280_temperature;BME280_humidity;BME280_pressure;Samples;Min_cycle;Max_cycle;Signal;HPM_P1;HPM_P2
2023/08/21 00:01:21;;;;;;;6.53;1.30;;;14.40;99.90;;;;;;5064408;28;20395;-66
2023/08/21 00:03:47;;;;;;;2.78;1.20;;;14.40;99.90;;;;;;5046097;28;20056;-66
2023/08/21 00:06:12;;;;;;;3.22;1.38;;;14.40;99.90;;;;;;5043580;28;20048;-66
2023/08/21 00:08:38;;;;;;;3.20;1.23;;;14.30;99.90;;;;;;5066170;28;20052;-66
2023/08/21 00:11:04;;;;;;;2.67;1.10;;;14.30;99.90;;;;;;5071547;28;20056;-66
2023/08/21 00:13:29;;;;;;;2.30;1.00;;;14.20;99.90;;;;;;5050687;28;20407;-67
2023/08/21 00:15:55;;;;;;;3.03;1.10;;;14.20;99.90;;;;;;5060401;28;20057;-66
2023/08/21 00:18:21;;;;;;;1.48;0.80;;;14.20;99.90;;;;;;5051990;28;20052;-66
2023/08/21 00:20:47;;;;;;;2.25;0.80;;;14.20;99.90;;;;;;5063639;28;20049;-66
2023/08/21 00:23:13;;;;;;;1.98;1.00;;;14.20;99.90;;;;;;5063797;28;20051;-66
2023/08/21 00:25:38;;;;;;;2.35;1.20;;;14.20;99.90;;;;;;5067917;28;20488;-66
2023/08/21 00:28:04;;;;;;;1.70;1.08;;;14.10;99.90;;;;;;5060387;28;20400;-66
2023/08/21 00:30:30;;;;;;;1.60;0.90;;;14.10;99.90;;;;;;5061639;28;20048;-66
2023/08/21 00:32:56;;;;;;;3.22;1.08;;;14.10;99.90;;;;;;5063928;28;20041;-66
2023/08/21 00:35:21;;;;;;;2.22;0.90;;;14.00;99.90;;;;;;5067245;28;20045;-66
2023/08/21 00:37:47;;;;;;;4.00;1.23;;;14.00;99.90;;;;;;5045471;28;20056;-67
2023/08/21 00:40:13;;;;;;;4.05;1.38;;;13.90;99.90;;;;;;5062973;28;20036;-66
2023/08/21 00:42:39;;;;;;;3.15;0.95;;;13.90;99.90;;;;;;5062315;28;20444;-67
2023/08/21 00:45:08;;;;;;;1.98;1.00;;;13.90;99.90;;;;;;5063973;28;20127;-67
2023/08/21 00:47:34;;;;;;;1.95;0.90;;;13.90;99.90;;;;;;5071502;28;20048;-66
2023/08/21 00:50:00;;;;;;;4.20;1.80;;;13.90;99.90;;;;;;5060182;28;20049;-66
2023/08/21 00:52:26;;;;;;;1.77;0.75;;;13.80;99.90;;;;;;5047880;28;20055;-66
2023/08/21 00:54:51;;;;;;;3.90;1.20;;;13.80;99.90;;;;;;5071440;28;20392;-65
2023/08/21 00:57:17;;;;;;;1.75;0.70;;;13.70;99.90;;;;;;5062943;28;20041;-65
2023/08/21 00:59:43;;;;;;;0.65;0.50;;;13.80;99.90;;;;;;5063026;28;20056;-66
2023/08/21 01:02:09;;;;;;;1.15;0.60;;;13.70;99.90;;;;;;5060264;28;20048;-66
2023/08/21 01:04:35;;;;;;;1.27;0.73;;;13.70;99.90;;;;;;5070263;28;20056;-66
2023/08/21 01:07:01;;;;;;;0.73;0.40;;;13.60;99.90;;;;;;5063292;28;20052;-66
2023/08/21 01:09:45;;;;;;;1.83;0.70;;;13.70;99.90;;;;;;5063278;28;20048;-66
2023/08/21 01:12:30;;;;;;;2.95;0.85;;;13.60;99.90;;;;;;5061522;28;20084;-66
2023/08/21 01:14:59;;;;;;;;;;;13.60;99.90;;;;;;5068132;28;20080;-65
2023/08/21 01:17:26;;;;;;;1.85;0.90;;;13.50;99.90;;;;;;5060127;28;19999;-65
2023/08/21 01:19:53;;;;;;;2.35;0.90;;;13.40;99.90;;;;;;5059437;28;20044;-66
2023/08/21 01:22:19;;;;;;;1.20;0.80;;;13.50;99.90;;;;;;5068510;28;20044;-66
2023/08/21 01:24:44;;;;;;;1.95;0.73;;;13.50;99.90;;;;;;5062473;28;20044;-66
2023/08/21 01:27:12;;;;;;;2.67;0.70;;;13.40;99.90;;;;;;5062658;28;20051;-66
2023/08/21 01:29:37;;;;;;;1.75;0.70;;;13.60;99.90;;;;;;5061671;28;20080;-66
2023/08/21 01:32:45;;;;;;;1.25;0.70;;;13.40;99.90;;;;;;5062110;28;20079;-66
2023/08/21 01:35:11;;;;;;;0.90;0.70;;;13.50;99.90;;;;;;5065664;28;20055;-66
2023/08/21 01:37:38;;;;;;;1.33;0.80;;;13.30;99.90;;;;;;5062325;28;20166;-66
2023/08/21 01:40:04;;;;;;;1.02;0.60;;;13.30;99.90;;;;;;5027491;28;20534;-66
2023/08/21 01:42:30;;;;;;;5.50;0.77;;;13.20;99.90;;;;;;5061579;28;20048;-65
2023/08/21 01:44:55;;;;;;;0.40;0.30;;;13.30;99.90;;;;;;5066860;28;20095;-66
2023/08/21 01:47:21;;;;;;;1.00;0.70;;;13.30;99.90;;;;;;5059024;28;20037;-65
2023/08/21 01:49:47;;;;;;;1.23;0.88;;;13.20;99.90;;;;;;5060048;28;20051;-65
2023/08/21 01:52:12;;;;;;;3.67;0.95;;;13.20;99.90;;;;;;5061414;28;20090;-65
2023/08/21 01:54:38;;;;;;;1.40;1.00;;;13.10;99.90;;;;;;5050876;28;20468;-67
2023/08/21 01:57:03;;;;;;;2.70;0.90;;;13.10;99.90;;;;;;5061596;28;20496;-68
2023/08/21 01:59:29;;;;;;;1.20;0.77;;;13.10;99.90;;;;;;5061649;28;20036;-65
2023/08/21 02:01:55;;;;;;;1.27;0.95;;;13.10;99.90;;;;;;5067294;28;20090;-65
2023/08/21 02:04:21;;;;;;;1.55;0.90;;;13.10;99.90;;;;;;5067690;28;20064;-67
2023/08/21 02:06:46;;;;;;;2.92;1.00;;;13.00;99.90;;;;;;5070322;28;20039;-66
2023/08/21 02:09:12;;;;;;;1.13;0.80;;;13.00;99.90;;;;;;5060103;28;20036;-66
2023/08/21 02:11:38;;;;;;;1.75;0.95;;;13.00;99.90;;;;;;5063313;28;20048;-66
2023/08/21 02:14:04;;;;;;;2.40;1.00;;;13.20;99.90;;;;;;5069445;28;20052;-70
2023/08/21 02:16:29;;;;;;;2.50;0.80;;;13.00;99.90;;;;;;5068444;28;20048;-65
2023/08/21 02:18:56;;;;;;;1.23;0.70;;;12.90;99.90;;;;;;5069758;28;20075;-66
2023/08/21 02:21:22;;;;;;;2.00;0.80;;;13.00;99.90;;;;;;5067954;28;20475;-68
2023/08/21 02:23:47;;;;;;;1.83;0.82;;;12.90;99.90;;;;;;5069742;28;20048;-65
2023/08/21 02:26:13;;;;;;;1.10;0.73;;;12.90;99.90;;;;;;5061199;28;20143;-67
2023/08/21 02:28:39;;;;;;;4.00;1.20;;;12.90;99.90;;;;;;5069395;28;20052;-67
2023/08/21 02:31:05;;;;;;;2.25;0.80;;;12.80;99.90;;;;;;5061040;28;20040;-65
2023/08/21 02:33:30;;;;;;;3.30;1.48;;;12.90;99.90;;;;;;5064315;28;20102;-66
2023/08/21 02:35:56;;;;;;;4.57;0.88;;;12.80;99.90;;;;;;5061694;28;20048;-66
2023/08/21 02:38:22;;;;;;;1.63;0.93;;;12.80;99.90;;;;;;5068837;28;20076;-67
2023/08/21 02:40:47;;;;;;;3.95;1.40;;;13.10;99.90;;;;;;5051287;28;21417;-66
2023/08/21 02:43:13;;;;;;;1.67;1.10;;;12.80;99.90;;;;;;5051241;28;20464;-65
2023/08/21 02:45:39;;;;;;;2.38;0.90;;;12.80;99.90;;;;;;5069209;28;20041;-70
2023/08/21 02:48:05;;;;;;;2.50;1.30;;;12.90;99.90;;;;;;5060851;28;20127;-68
2023/08/21 02:50:30;;;;;;;3.67;1.50;;;12.80;99.90;;;;;;5069501;28;20203;-66
2023/08/21 02:52:56;;;;;;;5.97;1.52;;;12.80;99.90;;;;;;5059004;28;20052;-66
2023/08/21 02:55:22;;;;;;;7.63;2.53;;;12.80;99.90;;;;;;5067782;28;20045;-66
2023/08/21 02:57:47;;;;;;;6.00;2.45;;;12.80;99.90;;;;;;5065534;28;20399;-67
2023/08/21 03:00:13;;;;;;;8.02;3.22;;;12.80;99.90;;;;;;5069650;28;20036;-66
2023/08/21 03:02:42;;;;;;;7.80;3.53;;;12.80;99.90;;;;;;5061265;28;20482;-67
2023/08/21 03:05:09;;;;;;;8.15;3.40;;;12.90;99.90;;;;;;5067799;28;20484;-65
2023/08/21 03:07:34;;;;;;;4.13;2.50;;;12.90;99.90;;;;;;5068455;28;20037;-67
2023/08/21 03:10:01;;;;;;;8.38;2.70;;;12.90;99.90;;;;;;5062503;28;20055;-67
2023/08/21 03:12:27;;;;;;;9.77;3.03;;;12.90;99.90;;;;;;5073567;28;20093;-65
2023/08/21 03:14:53;;;;;;;7.47;3.00;;;13.00;99.90;;;;;;5070167;28;20040;-66
2023/08/21 03:17:19;;;;;;;4.50;2.60;;;13.10;99.90;;;;;;5071079;28;20106;-66
2023/08/21 03:19:44;;;;;;;6.25;2.45;;;13.20;99.90;;;;;;5066382;28;20044;-66
2023/08/21 03:22:10;;;;;;;5.97;2.45;;;13.00;99.90;;;;;;5064630;28;20155;-66
2023/08/21 03:24:36;;;;;;;5.20;2.78;;;13.00;99.90;;;;;;5068833;28;20123;-66
2023/08/21 03:27:02;;;;;;;5.95;2.00;;;13.00;99.90;;;;;;5066255;28;20124;-66
2023/08/21 03:29:28;;;;;;;3.83;2.25;;;13.10;99.90;;;;;;5062944;28;20044;-66
2023/08/21 03:31:54;;;;;;;5.20;2.13;;;13.10;99.90;;;;;;5064601;28;20055;-65
2023/08/21 03:34:20;;;;;;;5.32;1.70;;;13.40;99.90;;;;;;5072339;28;20116;-65
2023/08/21 03:36:46;;;;;;;4.55;2.10;;;13.20;99.90;;;;;;5064081;28;20169;-65
2023/08/21 03:39:11;;;;;;;4.68;2.00;;;13.20;99.90;;;;;;5066841;28;20364;-65
2023/08/21 03:41:37;;;;;;;4.78;1.83;;;13.10;99.90;;;;;;5062590;28;20080;-65
2023/08/21 03:44:03;;;;;;;5.05;2.00;;;13.20;99.90;;;;;;5068085;28;20450;-65
2023/08/21 03:46:28;;;;;;;4.20;1.73;;;13.20;99.90;;;;;;5064016;28;20044;-65
2023/08/21 03:48:54;;;;;;;3.72;1.88;;;13.10;99.90;;;;;;5069811;28;20434;-67
2023/08/21 03:51:19;;;;;;;2.80;1.65;;;13.10;99.90;;;;;;5061093;28;21012;-66
2023/08/21 03:53:45;;;;;;;7.20;2.00;;;13.10;99.90;;;;;;5061758;28;20642;-66
2023/08/21 03:56:11;;;;;;;5.07;1.83;;;13.00;99.90;;;;;;5064188;28;20064;-65
2023/08/21 03:58:36;;;;;;;2.35;1.50;;;13.00;99.90;;;;;;5072256;28;20048;-66
2023/08/21 04:01:02;;;;;;;2.22;1.60;;;13.00;99.90;;;;;;5066993;28;20036;-66
2023/08/21 04:03:28;;;;;;;2.10;1.48;;;12.90;99.90;;;;;;5051588;28;20135;-71
2023/08/21 04:05:54;;;;;;;2.53;1.20;;;12.90;99.90;;;;;;5063469;28;20119;-66
2023/08/21 04:08:20;;;;;;;1.38;1.00;;;12.90;99.90;;;;;;5068765;28;20048;-68
2023/08/21 04:10:45;;;;;;;1.90;1.30;;;12.90;99.90;;;;;;5065782;28;20091;-70
2023/08/21 04:13:11;;;;;;;1.40;1.00;;;13.00;99.90;;;;;;5069064;28;20119;-65
2023/08/21 04:15:37;;;;;;;3.08;0.90;;;13.00;99.90;;;;;;5059758;28;20066;-67
2023/08/21 04:18:03;;;;;;;2.08;1.00;;;13.00;99.90;;;;;;5068495;28;20438;-66
2023/08/21 04:20:29;;;;;;;4.00;1.70;;;12.80;99.90;;;;;;5071671;28;20546;-65
2023/08/21 04:22:55;;;;;;;5.05;2.13;;;12.90;99.90;;;;;;5072011;28;20124;-66
2023/08/21 04:25:20;;;;;;;5.88;2.00;;;12.90;99.90;;;;;;5063507;28;20053;-66
2023/08/21 04:27:46;;;;;;;3.67;1.52;;;12.90;99.90;;;;;;5063560;28;20095;-67
2023/08/21 04:30:12;;;;;;;6.63;2.03;;;12.90;99.90;;;;;;5069599;28;20055;-67
2023/08/21 04:32:38;;;;;;;3.70;1.67;;;12.80;99.90;;;;;;5063595;28;20045;-65
2023/08/21 04:35:05;;;;;;;3.58;1.42;;;12.80;99.90;;;;;;5045184;28;20052;-66
2023/08/21 04:37:31;;;;;;;4.90;1.25;;;12.80;99.90;;;;;;5062321;28;20048;-66
2023/08/21 04:39:57;;;;;;;2.83;1.48;;;12.80;99.90;;;;;;5064526;28;20036;-68
2023/08/21 04:42:23;;;;;;;3.83;1.02;;;12.90;99.90;;;;;;5064430;28;20399;-66
2023/08/21 04:44:48;;;;;;;2.05;1.10;;;12.90;99.90;;;;;;5070659;28;20094;-69
2023/08/21 04:47:28;;;;;;;1.92;1.30;;;12.90;99.90;;;;;;5064576;28;20051;-66
2023/08/21 04:49:55;;;;;;;2.17;0.93;;;12.80;99.90;;;;;;5062421;28;20072;-66
2023/08/21 04:52:22;;;;;;;1.52;0.85;;;12.70;99.90;;;;;;5071484;28;20403;-65
2023/08/21 04:54:48;;;;;;;1.30;0.75;;;12.70;99.90;;;;;;5062163;28;20049;-66
2023/08/21 04:57:15;;;;;;;1.63;0.88;;;12.80;99.90;;;;;;5059987;28;20033;-66
2023/08/21 04:59:41;;;;;;;1.27;0.60;;;12.90;99.90;;;;;;5042109;28;20040;-66
2023/08/21 05:02:06;;;;;;;1.58;0.60;;;12.80;99.90;;;;;;5070397;28;20116;-66
2023/08/21 05:04:34;;;;;;;1.58;0.80;;;12.80;99.90;;;;;;5063242;28;20083;-65
2023/08/21 05:07:00;;;;;;;2.58;0.77;;;12.70;99.90;;;;;;5067553;28;20095;-65
2023/08/21 05:09:25;;;;;;;1.60;0.60;;;12.80;99.90;;;;;;5063039;28;20072;-66
2023/08/21 05:11:51;;;;;;;2.65;0.90;;;12.80;99.90;;;;;;5064203;28;20072;-66
2023/08/21 05:14:19;;;;;;;1.70;0.80;;;12.80;99.90;;;;;;5062455;28;20496;-66
2023/08/21 05:16:45;;;;;;;2.42;0.93;;;12.90;99.90;;;;;;5070911;28;20403;-66
2023/08/21 05:19:11;;;;;;;1.92;0.77;;;12.90;99.90;;;;;;5070344;28;20052;-65
2023/08/21 05:21:36;;;;;;;1.77;0.90;;;12.90;99.90;;;;;;5066226;28;20040;-65
2023/08/21 05:24:02;;;;;;;1.05;0.68;;;12.90;99.90;;;;;;5052183;28;20056;-65
2023/08/21 05:26:28;;;;;;;4.20;1.70;;;13.00;99.90;;;;;;5068696;28;20051;-65
2023/08/21 05:28:53;;;;;;;1.98;1.17;;;13.00;99.90;;;;;;5041261;28;20060;-65
2023/08/21 05:31:19;;;;;;;3.20;1.15;;;13.10;99.90;;;;;;5041089;28;20068;-65
2023/08/21 05:33:45;;;;;;;2.72;1.40;;;13.10;99.90;;;;;;5070223;28;20047;-64
2023/08/21 05:36:13;;;;;;;2.90;1.30;;;13.20;99.90;;;;;;5045562;28;20067;-66
2023/08/21 05:38:39;;;;;;;4.80;2.10;;;13.20;99.90;;;;;;5040590;28;20040;-64
2023/08/21 05:41:06;;;;;;;4.93;1.40;;;13.30;99.90;;;;;;5064566;28;20044;-65
2023/08/21 05:43:32;;;;;;;3.63;1.45;;;13.30;99.90;;;;;;5061999;28;20143;-65
2023/08/21 05:45:57;;;;;;;2.65;1.60;;;13.40;99.90;;;;;;5070458;28;20178;-65
2023/08/21 05:48:23;;;;;;;4.73;2.07;;;13.50;99.90;;;;;;5070594;28;20048;-66
2023/08/21 05:50:53;;;;;;;3.13;1.50;;;13.60;99.90;;;;;;5063632;28;20077;-65
2023/08/21 05:53:19;;;;;;;2.85;1.50;;;13.60;99.90;;;;;;5065017;28;20048;-65
2023/08/21 05:55:44;;;;;;;6.10;3.13;;;13.70;99.90;;;;;;5067061;28;20036;-65
2023/08/21 05:58:10;;;;;;;4.63;2.25;;;14.20;99.90;;;;;;5048496;28;20041;-65
2023/08/21 06:00:38;;;;;;;5.30;2.75;;;14.00;99.90;;;;;;5062702;28;20487;-65
2023/08/21 06:03:04;;;;;;;6.32;2.60;;;13.90;99.90;;;;;;5061751;28;20396;-66
2023/08/21 06:05:30;;;;;;;6.30;2.60;;;14.00;99.90;;;;;;5061775;28;20045;-66
2023/08/21 06:07:55;;;;;;;7.95;2.83;;;14.20;99.90;;;;;;5061614;28;20040;-66
2023/08/21 06:10:21;;;;;;;9.27;2.70;;;14.30;99.90;;;;;;5058016;28;20462;-65
2023/08/21 06:12:48;;;;;;;7.13;3.00;;;14.40;99.90;;;;;;5069029;28;20032;-66
2023/08/21 06:15:14;;;;;;;9.57;3.20;;;14.50;99.90;;;;;;5059547;28;20489;-66
2023/08/21 06:17:40;;;;;;;9.38;3.03;;;14.70;99.90;;;;;;5063223;28;20518;-66
2023/08/21 06:20:08;;;;;;;8.35;3.00;;;14.80;99.90;;;;;;5061570;28;20060;-66
2023/08/21 06:22:34;;;;;;;12.13;2.97;;;14.80;99.90;;;;;;5070013;28;20036;-66
2023/08/21 06:25:00;;;;;;;6.75;2.40;;;15.00;99.90;;;;;;5061604;28;20131;-66
2023/08/21 06:27:26;;;;;;;7.25;2.72;;;15.20;99.90;;;;;;5059435;28;20144;-66
2023/08/21 06:29:52;;;;;;;9.55;3.25;;;15.30;99.90;;;;;;5058222;28;20048;-66
2023/08/21 06:32:17;;;;;;;11.70;3.22;;;15.40;99.90;;;;;;5065917;28;20041;-66
2023/08/21 06:34:43;;;;;;;5.25;2.70;;;15.50;99.90;;;;;;5066787;28;20040;-66
2023/08/21 06:37:09;;;;;;;9.43;3.15;;;15.60;99.90;;;;;;5064062;28;20044;-66
2023/08/21 06:39:34;;;;;;;10.65;2.83;;;15.70;99.90;;;;;;5060928;28;20037;-66
2023/08/21 06:42:00;;;;;;;8.20;2.60;;;15.90;99.90;;;;;;5065878;28;20060;-65
2023/08/21 06:44:26;;;;;;;6.80;2.67;;;16.00;99.90;;;;;;5068033;28;20438;-65
2023/08/21 06:46:52;;;;;;;9.65;2.72;;;16.10;99.90;;;;;;5061140;28;20052;-66
2023/08/21 06:49:17;;;;;;;8.35;3.53;;;16.20;99.90;;;;;;5063392;28;20103;-65
2023/08/21 06:51:43;;;;;;;11.10;3.03;;;16.30;99.90;;;;;;5058657;28;20128;-67
2023/08/21 06:54:09;;;;;;;6.82;2.67;;;16.40;99.90;;;;;;5061276;28;20062;-66
2023/08/21 06:56:35;;;;;;;9.43;2.60;;;16.60;99.90;;;;;;5067837;28;20037;-66
2023/08/21 06:59:01;;;;;;;7.50;2.70;;;16.70;99.90;;;;;;5067135;28;20044;-66
2023/08/21 07:01:27;;;;;;;6.63;3.10;;;16.90;99.90;;;;;;5063924;28;20052;-66
2023/08/21 07:03:53;;;;;;;13.38;2.97;;;17.00;99.90;;;;;;5058227;28;20127;-68
2023/08/21 07:06:19;;;;;;;6.18;2.38;;;17.10;99.90;;;;;;5067833;28;20047;-66
2023/08/21 07:08:45;;;;;;;7.40;2.90;;;17.20;99.90;;;;;;5069590;28;20045;-67
2023/08/21 07:11:12;;;;;;;6.90;3.40;;;17.30;99.90;;;;;;5060952;28;20044;-66
2023/08/21 07:13:38;;;;;;;5.78;2.47;;;17.50;99.90;;;;;;5037435;28;20037;-66
2023/08/21 07:16:06;;;;;;;8.80;2.88;;;17.50;99.90;;;;;;5057706;28;20123;-66
2023/08/21 07:18:35;;;;;;;13.48;2.65;;;17.70;99.90;;;;;;5057836;28;20122;-66
2023/08/21 07:21:04;;;;;;;10.65;2.95;;;17.90;99.90;;;;;;5057469;28;20519;-68
2023/08/21 07:23:31;;;;;;;9.95;2.10;;;17.90;99.90;;;;;;5060779;28;20089;-66
2023/08/21 07:25:58;;;;;;;15.05;2.00;;;18.10;99.90;;;;;;5061004;28;20048;-66
2023/08/21 07:28:24;;;;;;;17.33;2.67;;;18.20;99.90;;;;;;5052082;28;20052;-66
2023/08/21 07:30:59;;;;;;;8.13;2.00;;;18.30;99.90;;;;;;5060649;28;20079;-66
2023/08/21 07:33:26;;;;;;;12.38;2.05;;;18.40;99.90;;;;;;5060690;28;20052;-67
2023/08/21 07:36:03;;;;;;;8.98;1.52;;;18.50;99.90;;;;;;5060449;28;20411;-65
2023/08/21 07:38:29;;;;;;;25.17;2.25;;;18.60;99.90;;;;;;5059837;28;20053;-66
2023/08/21 07:41:10;;;;;;;14.77;1.90;;;18.80;99.90;;;;;;5039533;28;20044;-67
2023/08/21 07:43:36;;;;;;;20.73;2.00;;;18.90;99.90;;;;;;5057894;28;20037;-67
2023/08/21 07:46:05;;;;;;;13.25;1.88;;;19.00;99.90;;;;;;5068153;28;20443;-67
2023/08/21 07:48:32;;;;;;;6.85;1.60;;;19.20;99.90;;;;;;5042662;28;20051;-66
2023/08/21 07:50:57;;;;;;;7.50;1.58;;;19.30;99.90;;;;;;5068510;28;20040;-67
2023/08/21 07:53:24;;;;;;;9.98;1.52;;;19.40;99.90;;;;;;5061429;28;20048;-65
2023/08/21 07:55:50;;;;;;;3.83;1.30;;;19.60;99.90;;;;;;5066993;28;20052;-66
2023/08/21 07:58:15;;;;;;;6.57;1.35;;;19.70;99.90;;;;;;5068276;28;20048;-66
2023/08/21 08:00:42;;;;;;;10.18;1.27;;;19.90;99.90;;;;;;5061495;28;20049;-65
2023/08/21 08:03:08;;;;;;;9.48;1.42;;;20.10;99.90;;;;;;5064148;28;20056;-65
2023/08/21 08:05:34;;;;;;;5.35;1.33;;;20.30;99.90;;;;;;5065211;28;20119;-66
2023/08/21 08:07:59;;;;;;;11.00;1.60;;;20.50;99.90;;;;;;5072137;28;20055;-65
2023/08/21 08:10:25;;;;;;;7.55;1.30;;;20.70;99.90;;;;;;5046696;28;20063;-65
2023/08/21 08:12:51;;;;;;;6.45;1.23;;;21.00;99.90;;;;;;5064586;28;20498;-65
2023/08/21 08:15:18;;;;;;;11.07;1.98;;;21.20;99.90;;;;;;5061629;28;20053;-66
2023/08/21 08:17:45;;;;;;;7.20;1.40;;;21.50;99.90;;;;;;5048916;28;20049;-65
2023/08/21 08:20:12;;;;;;;7.65;1.33;;;21.60;99.90;;;;;;5071659;28;20128;-66
2023/08/21 08:22:37;;;;;;;6.88;1.40;;;21.80;99.90;;;;;;5061395;28;20037;-65
2023/08/21 08:25:05;;;;;;;4.30;1.20;;;22.10;99.90;;;;;;5061608;28;20056;-66
2023/08/21 08:27:32;;;;;;;4.45;1.08;;;22.20;99.90;;;;;;5064873;28;20068;-68
2023/08/21 08:29:58;;;;;;;5.72;0.98;;;22.40;99.90;;;;;;5054606;28;20539;-66
2023/08/21 08:32:23;;;;;;;6.18;1.00;;;22.60;99.90;;;;;;5063921;28;20174;-66
2023/08/21 08:34:49;;;;;;;6.00;1.33;;;22.70;99.90;;;;;;5064852;28;20044;-71
2023/08/21 08:37:15;;;;;;;2.58;0.82;;;23.00;99.90;;;;;;5064019;28;20134;-63
2023/08/21 08:39:40;;;;;;;4.40;1.10;;;23.20;99.90;;;;;;5071125;28;20055;-73
2023/08/21 08:42:07;;;;;;;3.40;0.80;;;23.20;99.90;;;;;;5063721;28;20052;-74
2023/08/21 08:44:36;;;;;;;5.03;1.27;;;23.60;99.90;;;;;;5069553;28;20112;-67
2023/08/21 08:47:02;;;;;;;5.22;1.17;;;23.80;99.90;;;;;;5063489;28;20049;-66
2023/08/21 08:49:29;;;;;;;10.88;1.63;;;23.90;99.90;;;;;;5048075;28;20052;-69
2023/08/21 08:51:55;;;;;;;4.40;1.10;;;24.00;99.90;;;;;;5072281;28;20044;-64
2023/08/21 08:54:22;;;;;;;6.10;1.30;;;24.10;99.90;;;;;;5072390;28;20158;-70
2023/08/21 08:56:48;;;;;;;6.30;1.20;;;24.30;99.90;;;;;;5063197;28;20098;-73
2023/08/21 08:59:14;;;;;;;7.18;1.75;;;24.50;99.90;;;;;;5060436;28;20044;-69
2023/08/21 09:01:41;;;;;;;4.93;1.48;;;24.60;99.90;;;;;;5060150;28;20076;-67
2023/08/21 09:04:07;;;;;;;3.78;1.10;;;24.70;99.90;;;;;;5071577;28;20049;-66
2023/08/21 09:06:33;;;;;;;8.10;1.73;;;24.80;99.90;;;;;;5066852;28;20040;-69
2023/08/21 09:08:59;;;;;;;5.25;1.10;;;25.00;99.90;;;;;;5061187;28;20040;-68
2023/08/21 09:11:25;;;;;;;3.70;1.35;;;25.20;99.90;;;;;;5063945;28;20385;-71
2023/08/21 09:13:51;;;;;;;7.93;1.33;;;25.30;99.90;;;;;;5067592;28;20071;-67
2023/08/21 09:16:18;;;;;;;4.55;1.20;;;25.40;99.90;;;;;;5063419;28;20064;-68
2023/08/21 09:18:48;;;;;;;6.03;1.02;;;25.50;99.90;;;;;;5063156;28;20119;-68
2023/08/21 09:21:21;;;;;;;7.40;1.13;;;25.60;99.90;;;;;;5062711;28;20040;-67
2023/08/21 09:23:48;;;;;;;7.03;1.30;;;25.60;99.90;;;;;;5163895;22;20044;-67
2023/08/21 09:26:20;;;;;;;4.07;1.08;;;25.70;99.90;;;;;;5091818;28;20056;-69
2023/08/21 09:28:47;;;;;;;6.72;1.20;;;25.80;99.90;;;;;;5087388;28;20376;-69
2023/08/21 09:31:13;;;;;;;4.78;1.25;;;25.90;99.90;;;;;;5080276;28;20102;-68
2023/08/21 09:33:40;;;;;;;5.30;1.30;;;25.90;99.90;;;;;;5083088;28;20440;-66
2023/08/21 09:36:05;;;;;;;6.85;1.00;;;26.00;99.90;;;;;;5083534;28;20548;-66
2023/08/21 09:38:33;;;;;;;5.45;1.23;;;26.10;99.90;;;;;;5082049;28;20048;-66
2023/08/21 09:40:59;;;;;;;3.85;0.90;;;26.20;99.90;;;;;;5084838;28;20047;-67
2023/08/21 09:43:25;;;;;;;4.07;1.13;;;26.30;99.90;;;;;;5083447;28;20091;-66
2023/08/21 09:45:55;;;;;;;4.53;1.00;;;26.40;99.90;;;;;;5079991;28;20435;-66
2023/08/21 09:48:26;;;;;;;4.53;1.05;;;26.40;99.90;;;;;;5079339;28;20040;-66
2023/08/21 09:50:53;;;;;;;4.57;0.80;;;26.30;99.90;;;;;;5082068;28;20048;-68
2023/08/21 09:53:22;;;;;;;8.00;1.05;;;26.40;99.90;;;;;;5082876;28;20071;-67
2023/08/21 09:55:50;;;;;;;5.20;1.50;;;26.50;99.90;;;;;;5081481;28;20104;-67
2023/08/21 09:58:17;;;;;;;4.57;1.05;;;26.60;99.90;;;;;;5079837;28;20040;-68
2023/08/21 10:00:43;;;;;;;4.72;0.93;;;26.60;99.90;;;;;;5079385;28;20043;-68
2023/08/21 10:03:10;;;;;;;4.25;1.00;;;26.70;99.90;;;;;;5082455;28;20047;-67
2023/08/21 10:05:38;;;;;;;5.57;1.30;;;26.70;99.90;;;;;;5076120;28;20045;-68
2023/08/21 10:08:06;;;;;;;4.90;1.00;;;26.80;99.90;;;;;;5089193;28;20039;-69
2023/08/21 10:10:33;;;;;;;6.97;1.27;;;26.90;99.90;;;;;;5077286;28;20061;-69
2023/08/21 10:13:00;;;;;;;7.18;1.00;;;27.10;99.90;;;;;;5078953;28;20040;-66
2023/08/21 10:15:28;;;;;;;4.10;1.25;;;27.20;99.90;;;;;;5087215;28;20045;-67
2023/08/21 10:17:55;;;;;;;4.88;1.30;;;27.10;99.90;;;;;;5086539;28;20048;-68
2023/08/21 10:20:23;;;;;;;7.93;1.70;;;27.20;99.90;;;;;;5088290;28;20173;-68
2023/08/21 10:22:50;;;;;;;5.05;1.20;;;27.20;99.90;;;;;;5079324;28;20041;-66
2023/08/21 10:25:25;;;;;;;2.97;1.02;;;27.30;99.90;;;;;;5079869;28;20064;-67
2023/08/21 10:27:59;;;;;;;5.22;1.33;;;27.40;99.90;;;;;;5084898;28;20082;-67
2023/08/21 10:30:26;;;;;;;;;;;27.50;99.90;;;;;;5082453;28;20063;-68
2023/08/21 10:32:55;;;;;;;5.30;1.23;;;27.60;99.90;;;;;;5082230;28;19930;-65
2023/08/21 10:35:23;;;;;;;6.70;1.40;;;27.70;99.90;;;;;;5081710;28;20724;-68
2023/08/21 10:38:07;;;;;;;5.55;1.60;;;27.70;99.90;;;;;;5081436;28;20095;-66
2023/08/21 10:40:34;;;;;;;5.78;1.38;;;27.70;99.90;;;;;;5089874;28;20063;-68
2023/08/21 10:43:00;;;;;;;6.88;1.30;;;27.70;99.90;;;;;;5079025;28;20487;-69
2023/08/21 10:45:26;;;;;;;8.65;1.77;;;27.80;99.90;;;;;;5079207;28;20033;-67
2023/08/21 10:47:51;;;;;;;5.50;1.27;;;27.90;99.90;;;;;;5081722;28;20040;-67
2023/08/21 10:50:17;;;;;;;6.45;2.55;;;27.90;99.90;;;;;;5084027;28;20487;-68
2023/08/21 10:52:46;;;;;;;4.80;1.20;;;28.00;99.90;;;;;;5086645;28;20451;-69
2023/08/21 10:55:14;;;;;;;5.97;1.30;;;27.90;99.90;;;;;;5078844;28;20101;-68
2023/08/21 10:57:44;;;;;;;5.10;1.65;;;27.90;99.90;;;;;;5078498;28;20041;-69
2023/08/21 11:00:18;;;;;;;4.43;1.20;;;27.90;99.90;;;;;;5081842;28;20036;-73
2023/08/21 11:02:46;;;;;;;3.85;1.40;;;27.90;99.90;;;;;;5078642;28;20090;-74
2023/08/21 11:05:13;;;;;;;6.78;1.75;;;28.00;99.90;;;;;;5081566;28;20123;-71
2023/08/21 11:07:45;;;;;;;6.55;1.60;;;28.00;99.90;;;;;;5063488;28;20079;-68
2023/08/21 11:10:18;;;;;;;7.90;1.30;;;28.20;99.90;;;;;;5081540;28;20401;-68
2023/08/21 11:12:59;;;;;;;5.65;1.38;;;28.20;99.90;;;;;;5083753;28;20049;-68
2023/08/21 11:15:27;;;;;;;4.20;1.13;;;28.20;99.90;;;;;;5078583;28;20033;-70
2023/08/21 11:18:00;;;;;;;4.45;1.10;;;28.20;99.90;;;;;;5060754;28;20123;-70
2023/08/21 11:20:33;;;;;;;4.75;1.05;;;28.40;99.90;;;;;;5086186;28;20046;-66
2023/08/21 11:23:02;;;;;;;4.35;1.10;;;28.50;99.90;;;;;;5089786;28;20048;-67
2023/08/21 11:25:29;;;;;;;5.82;1.30;;;28.50;99.90;;;;;;5082529;28;20066;-66
2023/08/21 11:27:55;;;;;;;4.93;1.38;;;28.50;99.90;;;;;;5084825;28;20044;-66
2023/08/21 11:30:23;;;;;;;6.28;1.70;;;28.60;99.90;;;;;;5067816;28;20475;-66
2023/08/21 11:33:03;;;;;;;7.10;1.77;;;28.70;99.90;;;;;;5085799;28;20051;-67
2023/08/21 11:35:29;;;;;;;5.80;1.77;;;28.70;99.90;;;;;;5086289;28;20052;-67
2023/08/21 11:37:55;;;;;;;6.43;1.88;;;28.40;99.90;;;;;;5081911;28;20086;-67
2023/08/21 11:40:20;;;;;;;11.93;2.88;;;28.50;99.90;;;;;;5081779;28;20041;-67
2023/08/21 11:42:52;;;;;;;8.30;3.05;;;28.50;99.90;;;;;;5084371;28;20078;-68
2023/08/21 11:45:20;;;;;;;8.63;1.70;;;28.40;99.90;;;;;;5085001;28;20059;-67
2023/08/21 11:47:46;;;;;;;6.78;1.83;;;28.50;99.90;;;;;;5082654;28;20436;-67
2023/08/21 11:50:15;;;;;;;6.20;1.70;;;28.60;99.90;;;;;;5081431;28;20158;-67
2023/08/21 11:52:42;;;;;;;6.07;1.40;;;28.60;99.90;;;;;;5082046;28;20455;-69
2023/08/21 11:55:10;;;;;;;6.07;1.65;;;28.60;99.90;;;;;;5084672;28;20083;-67
2023/08/21 11:57:48;;;;;;;5.60;1.42;;;28.50;99.90;;;;;;5085493;28;20041;-68
2023/08/21 12:00:18;;;;;;;4.90;1.58;;;28.50;99.20;;;;;;5080973;28;20135;-68
2023/08/21 12:02:53;;;;;;;8.88;1.75;;;28.50;99.90;;;;;;5080761;28;20040;-68
2023/08/21 12:05:19;;;;;;;4.53;1.35;;;28.50;99.90;;;;;;5085087;28;20032;-67
2023/08/21 12:07:45;;;;;;;5.75;1.20;;;28.60;99.90;;;;;;5074402;28;20056;-67
2023/08/21 12:10:11;;;;;;;4.45;1.13;;;28.70;99.90;;;;;;5089255;28;20415;-67
2023/08/21 12:12:36;;;;;;;7.03;1.52;;;28.80;99.90;;;;;;5081224;28;20639;-68
2023/08/21 12:15:02;;;;;;;4.28;0.95;;;28.90;99.90;;;;;;5063011;28;20072;-70
2023/08/21 12:17:28;;;;;;;7.55;1.17;;;28.90;99.70;;;;;;5087531;28;20119;-68
2023/08/21 12:19:53;;;;;;;7.35;1.33;;;28.90;99.80;;;;;;5080927;28;20045;-69
2023/08/21 12:22:19;;;;;;;9.82;1.73;;;29.00;99.90;;;;;;5064713;28;20456;-75
2023/08/21 12:24:45;;;;;;;3.80;1.00;;;29.10;99.90;;;;;;5065362;28;20697;-74
2023/08/21 12:27:11;;;;;;;4.00;0.93;;;29.10;99.60;;;;;;5087873;28;20076;-68
2023/08/21 12:29:36;;;;;;;7.18;1.30;;;29.20;99.70;;;;;;5088119;28;20061;-70
2023/08/21 12:32:03;;;;;;;12.65;1.75;;;29.20;99.30;;;;;;5083646;28;20127;-68
2023/08/21 12:34:28;;;;;;;7.88;1.50;;;29.20;99.80;;;;;;5082270;28;20040;-70
2023/08/21 12:36:55;;;;;;;6.70;1.23;;;29.20;99.90;;;;;;5084508;28;20040;-73
2023/08/21 12:39:21;;;;;;;6.07;1.52;;;29.20;99.80;;;;;;5091892;28;20537;-69
2023/08/21 12:41:48;;;;;;;4.60;1.25;;;29.30;99.90;;;;;;5080297;28;20075;-67
2023/08/21 12:44:14;;;;;;;6.28;1.00;;;29.40;99.60;;;;;;5072016;28;20442;-70